sensor_id;sensor_type;location;lat;lon;timestamp;temperature;humidity
19561;DHT22;9927;47.792;10.616;2023-09-19T03:02:14;16.70;99.90
19561;DHT22;9927;47.792;10.616;2023-09-19T03:04:42;16.70;99.90
19561;DHT22;9927;47.792;10.616;2023-09-19T03:07:09;16.70;99.90
19561;DHT22;9927;47.792;10.616;2023-09-19T03:09:38;16.70;99.90
19561;DHT22;9927;47.792;10.616;2023-09-19T03:12:06;16.60;99.90
19561;DHT22;9927;47.792;10.616;2023-09-19T03:14:33;16.70;99.90
19561;DHT22;9927;47.792;10.616;2023-09-19T03:17:02;16.70;99.90
19561;DHT22;9927;47.792;10.616;2023-09-19T03:19:33;16.70;99.90
19561;DHT22;9927;47.792;10.616;2023-09-19T03:22:00;16.70;99.90
19561;DHT22;9927;47.792;10.616;2023-09-19T03:24:29;16.70;99.90
19561;DHT22;9927;47.792;10.616;2023-09-19T03:26:56;16.70;99.90
19561;DHT22;9927;47.792;10.616;2023-09-19T03:29:24;16.70;99.90
19561;DHT22;9927;47.792;10.616;2023-09-19T03:31:52;16.60;99.90
19561;DHT22;9927;47.792;10.616;2023-09-19T03:34:21;16.60;99.90
19561;DHT22;9927;47.792;10.616;2023-09-19T03:36:49;16.60;99.90
19561;DHT22;9927;47.792;10.616;2023-09-19T03:39:16;16.60;99.90
19561;DHT22;9927;47.792;10.616;2023-09-19T03:41:43;16.70;99.90
19561;DHT22;9927;47.792;10.616;2023-09-19T03:44:12;16.70;99.90
19561;DHT22;9927;47.792;10.616;2023-09-19T03:46:39;16.70;99.90
19561;DHT22;9927;47.792;10.616;2023-09-19T03:49:06;16.70;99.90
19561;DHT22;9927;47.792;10.616;2023-09-19T03:51:34;16.70;99.90
19561;DHT22;9927;47.792;10.616;2023-09-19T03:54:01;16.70;99.90
19561;DHT22;9927;47.792;10.616;2023-09-19T03:56:31;16.70;99.90
19561;DHT22;9927;47.792;10.616;2023-09-19T03:58:58;16.70;99.90
19561;DHT22;9927;47.792;10.616;2023-09-19T04:01:25;16.60;99.90
19561;DHT22;9927;47.792;10.616;2023-09-19T04:03:55;16.60;99.90
19561;DHT22;9927;47.792;10.616;2023-09-19T04:06:22;16.60;99.90
19561;DHT22;9927;47.792;10.616;2023-09-19T04:08:50;16.60;99.90
19561;DHT22;9927;47.792;10.616;2023-09-19T04:11:17;16.60;99.90
19561;DHT22;9927;47.792;10.616;2023-09-19T04:13:44;16.60;99.90
19561;DHT22;9927;47.792;10.616;2023-09-19T04:16:11;16.60;99.90
19561;DHT22;9927;47.792;10.616;2023-09-19T04:18:39;16.70;99.90
19561;DHT22;9927;47.792;10.616;2023-09-19T04:21:06;16.70;99.90
19561;DHT22;9927;47.792;10.616;2023-09-19T04:23:34;16.70;99.90
19561;DHT22;9927;47.792;10.616;2023-09-19T04:26:01;16.70;99.90
19561;DHT22;9927;47.792;10.616;2023-09-19T04:28:31;16.70;99.90
19561;DHT22;9927;47.792;10.616;2023-09-19T04:31:01;16.70;99.90
19561;DHT22;9927;47.792;10.616;2023-09-19T04:33:28;16.70;99.90
19561;DHT22;9927;47.792;10.616;2023-09-19T04:35:56;16.70;99.90
19561;DHT22;9927;47.792;10.616;2023-09-19T04:38:29;16.70;99.90
19561;DHT22;9927;47.792;10.616;2023-09-19T04:40:59;16.70;99.90
19561;DHT22;9927;47.792;10.616;2023-09-19T04:43:26;16.70;99.90
19561;DHT22;9927;47.792;10.616;2023-09-19T04:45:54;16.70;99.90
19561;DHT22;9927;47.792;10.616;2023-09-19T04:48:23;16.80;99.90
19561;DHT22;9927;47.792;10.616;2023-09-19T04:50:53;16.80;99.90
19561;DHT22;9927;47.792;10.616;2023-09-19T04:53:20;16.70;99.90
19561;DHT22;9927;47.792;10.616;2023-09-19T04:55:51;16.70;99.90
19561;DHT22;9927;47.792;10.616;2023-09-19T04:58:23;16.70;99.90
19561;DHT22;9927;47.792;10.616;2023-09-19T05:00:50;16.70;99.90
19561;DHT22;9927;47.792;10.616;2023-09-19T05:03:18;16.70;99.90
19561;DHT22;9927;47.792;10.616;2023-09-19T05:05:47;16.70;99.90
19561;DHT22;9927;47.792;10.616;2023-09-19T05:08:15;16.70;99.90
19561;DHT22;9927;47.792;10.616;2023-09-19T05:10:42;16.80;99.90
19561;DHT22;9927;47.792;10.616;2023-09-19T05:13:09;16.80;99.90
19561;DHT22;9927;47.792;10.616;2023-09-19T05:15:37;16.80;99.90
19561;DHT22;9927;47.792;10.616;2023-09-19T05:18:04;16.80;99.90
19561;DHT22;9927;47.792;10.616;2023-09-19T05:20:33;16.80;99.90
19561;DHT22;9927;47.792;10.616;2023-09-19T05:23:06;16.90;99.90
19561;DHT22;9927;47.792;10.616;2023-09-19T05:25:39;16.90;99.90
19561;DHT22;9927;47.792;10.616;2023-09-19T05:28:08;16.90;99.90
19561;DHT22;9927;47.792;10.616;2023-09-19T05:30:36;16.90;99.90
19561;DHT22;9927;47.792;10.616;2023-09-19T05:33:04;16.90;99.90
19561;DHT22;9927;47.792;10.616;2023-09-19T05:35:32;16.90;99.90
19561;DHT22;9927;47.792;10.616;2023-09-19T05:38:00;16.90;99.90
19561;DHT22;9927;47.792;10.616;2023-09-19T05:40:27;16.90;99.90
19561;DHT22;9927;47.792;10.616;2023-09-19T05:42:54;16.90;99.90
19561;DHT22;9927;47.792;10.616;2023-09-19T05:45:22;16.90;99.90
19561;DHT22;9927;47.792;10.616;2023-09-19T05:47:50;17.00;99.90
19561;DHT22;9927;47.792;10.616;2023-09-19T05:50:18;17.10;99.90
19561;DHT22;9927;47.792;10.616;2023-09-19T05:52:53;17.10;99.90
19561;DHT22;9927;47.792;10.616;2023-09-19T05:55:21;17.20;99.90
19561;DHT22;9927;47.792;10.616;2023-09-19T05:57:52;17.30;99.90
19561;DHT22;9927;47.792;10.616;2023-09-19T06:00:24;17.40;99.90
19561;DHT22;9927;47.792;10.616;2023-09-19T06:02:54;17.40;99.90
19561;DHT22;9927;47.792;10.616;2023-09-19T06:05:22;17.50;99.90
19561;DHT22;9927;47.792;10.616;2023-09-19T06:07:49;17.50;99.90
19561;DHT22;9927;47.792;10.616;2023-09-19T06:10:18;17.60;99.90
19561;DHT22;9927;47.792;10.616;2023-09-19T06:12:47;17.60;99.90
19561;DHT22;9927;47.792;10.616;2023-09-19T06:15:16;17.70;99.90
19561;DHT22;9927;47.792;10.616;2023-09-19T06:17:50;17.80;99.90
19561;DHT22;9927;47.792;10.616;2023-09-19T06:20:18;17.90;99.90
19561;DHT22;9927;47.792;10.616;2023-09-19T06:22:47;17.80;99.90
19561;DHT22;9927;47.792;10.616;2023-09-19T06:25:15;17.90;99.90
19561;DHT22;9927;47.792;10.616;2023-09-19T06:27:45;17.90;99.90
19561;DHT22;9927;47.792;10.616;2023-09-19T06:30:12;18.00;99.90
19561;DHT22;9927;47.792;10.616;2023-09-19T06:32:41;18.00;99.90
19561;DHT22;9927;47.792;10.616;2023-09-19T06:35:12;18.00;99.90
19561;DHT22;9927;47.792;10.616;2023-09-19T06:37:40;18.00;99.90
19561;DHT22;9927;47.792;10.616;2023-09-19T06:40:12;18.00;99.90
19561;DHT22;9927;47.792;10.616;2023-09-19T06:42:47;18.00;99.90
19561;DHT22;9927;47.792;10.616;2023-09-19T06:45:17;18.10;99.90
19561;DHT22;9927;47.792;10.616;2023-09-19T06:47:50;18.20;99.90
19561;DHT22;9927;47.792;10.616;2023-09-19T06:50:20;18.30;99.90
19561;DHT22;9927;47.792;10.616;2023-09-19T06:52:50;18.30;99.90
19561;DHT22;9927;47.792;10.616;2023-09-19T06:55:19;18.30;99.90
19561;DHT22;9927;47.792;10.616;2023-09-19T06:57:48;18.30;99.90
19561;DHT22;9927;47.792;10.616;2023-09-19T07:00:16;18.40;99.90
19561;DHT22;9927;47.792;10.616;2023-09-19T07:02:59;18.40;99.90
19561;DHT22;9927;47.792;10.616;2023-09-19T07:05:28;18.30;99.90
19561;DHT22;9927;47.792;10.616;2023-09-19T07:07:56;18.40;99.90
19561;DHT22;9927;47.792;10.616;2023-09-19T07:10:27;18.40;99.90
19561;DHT22;9927;47.792;10.616;2023-09-19T07:13:02;18.40;99.90
19561;DHT22;9927;47.792;10.616;2023-09-19T07:15:32;18.60;99.90
19561;DHT22;9927;47.792;10.616;2023-09-19T07:18:03;18.50;99.90
19561;DHT22;9927;47.792;10.616;2023-09-19T07:20:31;18.60;99.90
19561;DHT22;9927;47.792;10.616;2023-09-19T07:22:59;18.70;99.90
19561;DHT22;9927;47.792;10.616;2023-09-19T07:25:28;18.90;99.90
19561;DHT22;9927;47.792;10.616;2023-09-19T07:27:56;19.10;99.90
19561;DHT22;9927;47.792;10.616;2023-09-19T07:30:27;19.80;99.90
19561;DHT22;9927;47.792;10.616;2023-09-19T07:32:55;19.90;99.90
19561;DHT22;9927;47.792;10.616;2023-09-19T07:35:22;20.30;99.90
19561;DHT22;9927;47.792;10.616;2023-09-19T07:37:50;20.80;99.90
19561;DHT22;9927;47.792;10.616;2023-09-19T07:40:19;21.10;99.90
19561;DHT22;9927;47.792;10.616;2023-09-19T07:42:48;21.10;99.90
19561;DHT22;9927;47.792;10.616;2023-09-19T07:45:16;21.20;99.90
19561;DHT22;9927;47.792;10.616;2023-09-19T07:47:48;21.70;99.90
19561;DHT22;9927;47.792;10.616;2023-09-19T07:50:17;21.70;99.90
19561;DHT22;9927;47.792;10.616;2023-09-19T07:52:49;22.10;99.90
19561;DHT22;9927;47.792;10.616;2023-09-19T07:55:20;22.20;99.90
19561;DHT22;9927;47.792;10.616;2023-09-19T07:57:54;22.00;99.90
19561;DHT22;9927;47.792;10.616;2023-09-19T08:00:21;21.80;99.90
19561;DHT22;9927;47.792;10.616;2023-09-19T08:02:48;21.80;99.90
19561;DHT22;9927;47.792;10.616;2023-09-19T08:05:24;21.50;99.90
19561;DHT22;9927;47.792;10.616;2023-09-19T08:07:52;21.10;99.90
19561;DHT22;9927;47.792;10.616;2023-09-19T08:10:21;20.70;99.90
19561;DHT22;9927;47.792;10.616;2023-09-19T08:12:48;20.30;99.90
19561;DHT22;9927;47.792;10.616;2023-09-19T08:15:17;20.20;99.90
19561;DHT22;9927;47.792;10.616;2023-09-19T08:17:47;20.10;99.90
19561;DHT22;9927;47.792;10.616;2023-09-19T08:20:15;20.10;99.90
19561;DHT22;9927;47.792;10.616;2023-09-19T08:22:49;20.10;99.90
19561;DHT22;9927;47.792;10.616;2023-09-19T08:25:19;20.20;99.90
19561;DHT22;9927;47.792;10.616;2023-09-19T08:27:47;20.60;99.90
19561;DHT22;9927;47.792;10.616;2023-09-19T08:30:16;20.90;99.90
19561;DHT22;9927;47.792;10.616;2023-09-19T08:32:43;20.90;99.90
19561;DHT22;9927;47.792;10.616;2023-09-19T08:35:11;20.70;99.90
19561;DHT22;9927;47.792;10.616;2023-09-19T08:37:39;20.70;99.90
19561;DHT22;9927;47.792;10.616;2023-09-19T08:40:06;20.90;99.90
19561;DHT22;9927;47.792;10.616;2023-09-19T08:42:56;21.10;99.90
19561;DHT22;9927;47.792;10.616;2023-09-19T08:45:24;21.20;99.90
19561;DHT22;9927;47.792;10.616;2023-09-19T08:50:49;21.20;99.90
19561;DHT22;9927;47.792;10.616;2023-09-19T08:56:20;20.80;99.90
19561;DHT22;9927;47.792;10.616;2023-09-19T08:59:20;20.50;99.90
19561;DHT22;9927;47.792;10.616;2023-09-19T09:01:51;20.60;99.90
19561;DHT22;9927;47.792;10.616;2023-09-19T09:04:22;20.60;99.90
19561;DHT22;9927;47.792;10.616;2023-09-19T09:06:50;20.50;99.90
19561;DHT22;9927;47.792;10.616;2023-09-19T09:09:20;20.60;99.90
19561;DHT22;9927;47.792;10.616;2023-09-19T09:11:48;20.60;99.90
19561;DHT22;9927;47.792;10.616;2023-09-19T09:14:21;20.60;99.90
19561;DHT22;9927;47.792;10.616;2023-09-19T09:16:49;20.70;99.90
19561;DHT22;9927;47.792;10.616;2023-09-19T09:19:16;20.70;99.90
19561;DHT22;9927;47.792;10.616;2023-09-19T09:21:51;20.60;99.90
19561;DHT22;9927;47.792;10.616;2023-09-19T09:24:29;20.70;99.90
19561;DHT22;9927;47.792;10.616;2023-09-19T09:26:57;20.80;99.90
19561;DHT22;9927;47.792;10.616;2023-09-19T09:29:47;20.90;99.90
19561;DHT22;9927;47.792;10.616;2023-09-19T09:32:27;20.90;99.90
19561;DHT22;9927;47.792;10.616;2023-09-19T09:35:00;20.90;99.90
19561;DHT22;9927;47.792;10.616;2023-09-19T09:37:28;20.90;99.90
19561;DHT22;9927;47.792;10.616;2023-09-19T09:40:02;20.90;99.90
19561;DHT22;9927;47.792;10.616;2023-09-19T09:42:52;21.00;99.90
19561;DHT22;9927;47.792;10.616;2023-09-19T09:45:25;20.90;99.90
19561;DHT22;9927;47.792;10.616;2023-09-19T09:48:06;20.70;99.90
19561;DHT22;9927;47.792;10.616;2023-09-19T09:50:48;20.70;99.90
19561;DHT22;9927;47.792;10.616;2023-09-19T09:56:12;20.30;99.90
19561;DHT22;9927;47.792;10.616;2023-09-19T09:58:51;20.40;99.90
19561;DHT22;9927;47.792;10.616;2023-09-19T10:01:23;20.60;99.90
19561;DHT22;9927;47.792;10.616;2023-09-19T10:03:58;21.10;99.90
19561;DHT22;9927;47.792;10.616;2023-09-19T10:06:40;21.50;99.90
19561;DHT22;9927;47.792;10.616;2023-09-19T10:09:14;21.60;99.90
19561;DHT22;9927;47.792;10.616;2023-09-19T10:11:49;21.60;99.90
19561;DHT22;9927;47.792;10.616;2023-09-19T10:14:30;21.50;99.90
19561;DHT22;9927;47.792;10.616;2023-09-19T10:17:00;21.40;99.90
19561;DHT22;9927;47.792;10.616;2023-09-19T10:22:14;21.60;99.90
19561;DHT22;9927;47.792;10.616;2023-09-19T10:24:43;21.50;99.90
19561;DHT22;9927;47.792;10.616;2023-09-19T10:27:29;21.50;99.90
19561;DHT22;9927;47.792;10.616;2023-09-19T10:30:08;21.70;99.90
19561;DHT22;9927;47.792;10.616;2023-09-19T10:32:40;21.70;99.90
19561;DHT22;9927;47.792;10.616;2023-09-19T10:35:08;21.70;99.90
19561;DHT22;9927;47.792;10.616;2023-09-19T10:37:39;21.70;99.90
19561;DHT22;9927;47.792;10.616;2023-09-19T10:40:08;21.40;99.90
19561;DHT22;9927;47.792;10.616;2023-09-19T10:42:38;21.40;99.90
19561;DHT22;9927;47.792;10.616;2023-09-19T10:45:09;21.50;99.90
19561;DHT22;9927;47.792;10.616;2023-09-19T10:47:40;21.50;99.90
19561;DHT22;9927;47.792;10.616;2023-09-19T10:50:08;21.30;99.90
19561;DHT22;9927;47.792;10.616;2023-09-19T10:52:40;21.30;99.90
19561;DHT22;9927;47.792;10.616;2023-09-19T10:55:10;21.20;99.90
19561;DHT22;9927;47.792;10.616;2023-09-19T10:57:44;21.10;99.90
19561;DHT22;9927;47.792;10.616;2023-09-19T11:00:14;21.20;99.90
19561;DHT22;9927;47.792;10.616;2023-09-19T11:03:25;21.10;99.90
19561;DHT22;9927;47.792;10.616;2023-09-19T11:08:57;21.20;99.90
19561;DHT22;9927;47.792;10.616;2023-09-19T11:30:40;21.70;99.90
19561;DHT22;9927;47.792;10.616;2023-09-19T11:33:30;21.80;99.90
19561;DHT22;9927;47.792;10.616;2023-09-19T11:36:14;21.80;99.90
19561;DHT22;9927;47.792;10.616;2023-09-19T11:44:31;22.20;99.90
19561;DHT22;9927;47.792;10.616;2023-09-19T11:46:54;22.40;99.90
19561;DHT22;9927;47.792;10.616;2023-09-19T11:49:29;22.60;99.90
19561;DHT22;9927;47.792;10.616;2023-09-19T11:52:01;22.90;99.90
19561;DHT22;9927;47.792;10.616;2023-09-19T11:54:36;22.90;99.90
19561;DHT22;9927;47.792;10.616;2023-09-19T11:57:07;22.60;99.90
19561;DHT22;9927;47.792;10.616;2023-09-19T11:59:38;22.40;99.90
19561;DHT22;9927;47.792;10.616;2023-09-19T12:02:07;22.10;99.90
19561;DHT22;9927;47.792;10.616;2023-09-19T12:07:08;21.90;99.90
19561;DHT22;9927;47.792;10.616;2023-09-19T12:09:39;21.90;99.90
19561;DHT22;9927;47.792;10.616;2023-09-19T12:12:10;21.90;99.90
19561;DHT22;9927;47.792;10.616;2023-09-19T12:14:39;22.00;99.90
19561;DHT22;9927;47.792;10.616;2023-09-19T12:17:08;22.00;99.90
19561;DHT22;9927;47.792;10.616;2023-09-19T12:19:36;21.80;99.90
19561;DHT22;9927;47.792;10.616;2023-09-19T12:22:03;21.80;99.90
19561;DHT22;9927;47.792;10.616;2023-09-19T12:24:36;21.80;99.90
19561;DHT22;9927;47.792;10.616;2023-09-19T12:27:07;22.20;99.90
19561;DHT22;9927;47.792;10.616;2023-09-19T12:29:43;22.40;99.90
19561;DHT22;9927;47.792;10.616;2023-09-19T12:32:11;22.30;99.90
19561;DHT22;9927;47.792;10.616;2023-09-19T12:34:38;22.20;99.90
19561;DHT22;9927;47.792;10.616;2023-09-19T12:37:13;22.10;99.90
19561;DHT22;9927;47.792;10.616;2023-09-19T12:39:50;21.90;99.90
19561;DHT22;9927;47.792;10.616;2023-09-19T12:42:24;21.70;99.90
19561;DHT22;9927;47.792;10.616;2023-09-19T12:44:52;21.60;99.90
19561;DHT22;9927;47.792;10.616;2023-09-19T12:47:24;21.40;99.90
19561;DHT22;9927;47.792;10.616;2023-09-19T12:52:47;21.30;99.90
19561;DHT22;9927;47.792;10.616;2023-09-19T12:55:26;21.50;99.90
19561;DHT22;9927;47.792;10.616;2023-09-19T12:58:11;21.70;99.90
19561;DHT22;9927;47.792;10.616;2023-09-19T13:00:41;21.70;99.90
19561;DHT22;9927;47.792;10.616;2023-09-19T13:03:29;21.80;99.90
19561;DHT22;9927;47.792;10.616;2023-09-19T13:06:01;22.20;99.90
19561;DHT22;9927;47.792;10.616;2023-09-19T13:08:39;22.30;99.90
19561;DHT22;9927;47.792;10.616;2023-09-19T13:11:16;22.50;99.90
19561;DHT22;9927;47.792;10.616;2023-09-19T13:13:50;22.50;99.90
19561;DHT22;9927;47.792;10.616;2023-09-19T13:16:22;22.40;99.90
19561;DHT22;9927;47.792;10.616;2023-09-19T13:18:53;22.40;99.90
19561;DHT22;9927;47.792;10.616;2023-09-19T13:21:33;22.30;99.90
19561;DHT22;9927;47.792;10.616;2023-09-19T13:24:31;22.30;99.90
19561;DHT22;9927;47.792;10.616;2023-09-19T13:27:00;22.40;99.90
19561;DHT22;9927;47.792;10.616;2023-09-19T13:29:28;22.20;99.90
19561;DHT22;9927;47.792;10.616;2023-09-19T13:31:55;22.00;99.90
19561;DHT22;9927;47.792;10.616;2023-09-19T13:34:23;22.00;99.90
19561;DHT22;9927;47.792;10.616;2023-09-19T13:36:50;21.90;99.90
19561;DHT22;9927;47.792;10.616;2023-09-19T13:39:17;21.80;99.90
19561;DHT22;9927;47.792;10.616;2023-09-19T13:41:46;21.70;99.90
19561;DHT22;9927;47.792;10.616;2023-09-19T13:44:14;21.70;99.90
19561;DHT22;9927;47.792;10.616;2023-09-19T13:46:43;21.80;99.90
19561;DHT22;9927;47.792;10.616;2023-09-19T13:49:14;21.70;99.90
19561;DHT22;9927;47.792;10.616;2023-09-19T13:51:41;21.70;99.90
19561;DHT22;9927;47.792;10.616;2023-09-19T13:54:11;21.80;99.90
19561;DHT22;9927;47.792;10.616;2023-09-19T13:56:39;21.80;99.90
19561;DHT22;9927;47.792;10.616;2023-09-19T13:59:07;21.80;99.90
19561;DHT22;9927;47.792;10.616;2023-09-19T14:01:34;21.80;99.90
19561;DHT22;9927;47.792;10.616;2023-09-19T14:04:01;21.80;99.90
19561;DHT22;9927;47.792;10.616;2023-09-19T14:06:29;21.80;99.90
19561;DHT22;9927;47.792;10.616;2023-09-19T14:08:56;21.70;99.90
19561;DHT22;9927;47.792;10.616;2023-09-19T14:11:24;21.70;99.90
19561;DHT22;9927;47.792;10.616;2023-09-19T14:13:51;21.70;99.90
19561;DHT22;9927;47.792;10.616;2023-09-19T14:16:22;21.50;99.90
19561;DHT22;9927;47.792;10.616;2023-09-19T14:18:52;21.50;99.90
19561;DHT22;9927;47.792;10.616;2023-09-19T14:21:19;21.50;99.90
19561;DHT22;9927;47.792;10.616;2023-09-19T14:23:46;21.60;99.90
19561;DHT22;9927;47.792;10.616;2023-09-19T14:26:14;21.60;99.90
19561;DHT22;9927;47.792;10.616;2023-09-19T14:28:41;21.70;99.90
19561;DHT22;9927;47.792;10.616;2023-09-19T14:31:10;21.70;99.90
19561;DHT22;9927;47.792;10.616;2023-09-19T14:33:38;21.70;99.90
19561;DHT22;9927;47.792;10.616;2023-09-19T14:36:06;21.80;99.90
19561;DHT22;9927;47.792;10.616;2023-09-19T14:38:37;21.80;99.90
19561;DHT22;9927;47.792;10.616;2023-09-19T14:41:05;21.90;99.90
19561;DHT22;9927;47.792;10.616;2023-09-19T14:43:33;21.90;99.90
19561;DHT22;9927;47.792;10.616;2023-09-19T14:46:04;21.90;99.90
19561;DHT22;9927;47.792;10.616;2023-09-19T14:48:31;22.00;99.90
19561;DHT22;9927;47.792;10.616;2023-09-19T14:51:05;22.00;99.90
19561;DHT22;9927;47.792;10.616;2023-09-19T14:53:33;22.10;99.90
19561;DHT22;9927;47.792;10.616;2023-09-19T14:56:06;22.20;99.90
19561;DHT22;9927;47.792;10.616;2023-09-19T14:58:35;22.20;99.90
19561;DHT22;9927;47.792;10.616;2023-09-19T15:01:06;22.10;99.90
19561;DHT22;9927;47.792;10.616;2023-09-19T15:03:34;22.10;99.90
19561;DHT22;9927;47.792;10.616;2023-09-19T15:06:04;22.20;99.90
19561;DHT22;9927;47.792;10.616;2023-09-19T15:08:33;22.10;99.90
19561;DHT22;9927;47.792;10.616;2023-09-19T15:11:01;22.10;99.90
19561;DHT22;9927;47.792;10.616;2023-09-19T15:13:33;22.20;99.90
19561;DHT22;9927;47.792;10.616;2023-09-19T15:16:04;22.10;99.90
19561;DHT22;9927;47.792;10.616;2023-09-19T15:18:40;22.00;99.90
19561;DHT22;9927;47.792;10.616;2023-09-19T15:21:11;22.00;99.90
19561;DHT22;9927;47.792;10.616;2023-09-19T15:23:39;22.00;99.90
19561;DHT22;9927;47.792;10.616;2023-09-19T15:26:09;22.00;99.90
19561;DHT22;9927;47.792;10.616;2023-09-19T15:28:37;22.00;99.90
19561;DHT22;9927;47.792;10.616;2023-09-19T15:33:34;21.80;99.90
19561;DHT22;9927;47.792;10.616;2023-09-19T15:36:09;21.80;99.90
19561;DHT22;9927;47.792;10.616;2023-09-19T15:39:02;21.70;99.90
19561;DHT22;9927;47.792;10.616;2023-09-19T15:41:39;21.70;99.90
19561;DHT22;9927;47.792;10.616;2023-09-19T15:44:15;21.80;99.90
19561;DHT22;9927;47.792;10.616;2023-09-19T15:46:43;21.80;99.90
19561;DHT22;9927;47.792;10.616;2023-09-19T15:49:12;21.80;99.90
19561;DHT22;9927;47.792;10.616;2023-09-19T15:51:40;21.60;99.90
19561;DHT22;9927;47.792;10.616;2023-09-19T15:54:12;21.60;99.90
19561;DHT22;9927;47.792;10.616;2023-09-19T15:56:43;21.50;99.90
19561;DHT22;9927;47.792;10.616;2023-09-19T15:59:11;21.50;99.90
19561;DHT22;9927;47.792;10.616;2023-09-19T16:01:40;21.40;99.90
19561;DHT22;9927;47.792;10.616;2023-09-19T16:04:08;21.40;99.90
19561;DHT22;9927;47.792;10.616;2023-09-19T16:06:36;21.30;99.90
19561;DHT22;9927;47.792;10.616;2023-09-19T16:09:05;21.20;99.90
19561;DHT22;9927;47.792;10.616;2023-09-19T16:11:34;21.00;99.90
19561;DHT22;9927;47.792;10.616;2023-09-19T16:14:05;20.90;99.90
19561;DHT22;9927;47.792;10.616;2023-09-19T16:16:37;20.90;99.90
19561;DHT22;9927;47.792;10.616;2023-09-19T16:19:05;20.80;99.90
19561;DHT22;9927;47.792;10.616;2023-09-19T16:21:37;20.70;99.90
19561;DHT22;9927;47.792;10.616;2023-09-19T16:24:07;20.70;99.90
19561;DHT22;9927;47.792;10.616;2023-09-19T16:26:37;20.50;99.90
19561;DHT22;9927;47.792;10.616;2023-09-19T16:29:04;20.40;99.90
19561;DHT22;9927;47.792;10.616;2023-09-19T16:31:33;20.30;99.90
19561;DHT22;9927;47.792;10.616;2023-09-19T16:34:01;20.30;99.90
19561;DHT22;9927;47.792;10.616;2023-09-19T16:36:28;20.10;99.90
19561;DHT22;9927;47.792;10.616;2023-09-19T16:38:55;20.10;99.90
19561;DHT22;9927;47.792;10.616;2023-09-19T16:41:23;20.10;99.90
19561;DHT22;9927;47.792;10.616;2023-09-19T16:43:51;20.00;99.90
19561;DHT22;9927;47.792;10.616;2023-09-19T16:46:18;19.90;99.90
19561;DHT22;9927;47.792;10.616;2023-09-19T16:48:47;19.80;99.90
19561;DHT22;9927;47.792;10.616;2023-09-19T16:51:31;19.70;99.90
19561;DHT22;9927;47.792;10.616;2023-09-19T16:53:59;19.60;99.90
19561;DHT22;9927;47.792;10.616;2023-09-19T16:56:26;19.50;99.90
19561;DHT22;9927;47.792;10.616;2023-09-19T16:58:55;19.50;99.90
19561;DHT22;9927;47.792;10.616;2023-09-19T17:01:23;19.40;99.90
19561;DHT22;9927;47.792;10.616;2023-09-19T17:03:52;19.30;99.90
19561;DHT22;9927;47.792;10.616;2023-09-19T17:06:20;19.20;99.90
19561;DHT22;9927;47.792;10.616;2023-09-19T17:08:50;19.10;99.90
19561;DHT22;9927;47.792;10.616;2023-09-19T17:11:18;19.10;99.90
19561;DHT22;9927;47.792;10.616;2023-09-19T17:13:50;19.00;99.90
19561;DHT22;9927;47.792;10.616;2023-09-19T17:16:19;18.90;99.90
19561;DHT22;9927;47.792;10.616;2023-09-19T17:18:55;18.80;99.90
19561;DHT22;9927;47.792;10.616;2023-09-19T17:21:25;18.80;99.90
19561;DHT22;9927;47.792;10.616;2023-09-19T17:23:53;18.80;99.90
19561;DHT22;9927;47.792;10.616;2023-09-19T17:26:21;18.70;99.90
19561;DHT22;9927;47.792;10.616;2023-09-19T17:28:52;18.60;99.90
19561;DHT22;9927;47.792;10.616;2023-09-19T17:31:21;18.60;99.90
19561;DHT22;9927;47.792;10.616;2023-09-19T17:33:50;18.50;99.90
19561;DHT22;9927;47.792;10.616;2023-09-19T17:36:23;18.40;99.90
19561;DHT22;9927;47.792;10.616;2023-09-19T17:38:52;18.30;99.90
19561;DHT22;9927;47.792;10.616;2023-09-19T17:41:20;18.20;99.90
19561;DHT22;9927;47.792;10.616;2023-09-19T17:43:53;18.10;99.90
19561;DHT22;9927;47.792;10.616;2023-09-19T17:46:21;18.00;99.90
19561;DHT22;9927;47.792;10.616;2023-09-19T17:48:57;17.90;99.90
19561;DHT22;9927;47.792;10.616;2023-09-19T17:51:25;17.80;99.90
19561;DHT22;9927;47.792;10.616;2023-09-19T17:53:54;17.70;99.90
19561;DHT22;9927;47.792;10.616;2023-09-19T17:56:24;17.70;99.90
19561;DHT22;9927;47.792;10.616;2023-09-19T17:58:52;17.50;99.90
19561;DHT22;9927;47.792;10.616;2023-09-19T18:01:24;17.40;99.90
19561;DHT22;9927;47.792;10.616;2023-09-19T18:03:53;17.40;99.90
19561;DHT22;9927;47.792;10.616;2023-09-19T18:06:26;17.40;99.90
19561;DHT22;9927;47.792;10.616;2023-09-19T18:08:54;17.40;99.90
19561;DHT22;9927;47.792;10.616;2023-09-19T18:11:23;17.30;99.90
19561;DHT22;9927;47.792;10.616;2023-09-19T18:13:57;17.30;99.90
19561;DHT22;9927;47.792;10.616;2023-09-19T18:16:26;17.20;99.90
19561;DHT22;9927;47.792;10.616;2023-09-19T18:18:59;17.20;99.90
19561;DHT22;9927;47.792;10.616;2023-09-19T18:21:29;17.10;99.90
19561;DHT22;9927;47.792;10.616;2023-09-19T18:23:58;17.00;99.90
19561;DHT22;9927;47.792;10.616;2023-09-19T18:26:29;17.00;99.90
19561;DHT22;9927;47.792;10.616;2023-09-19T18:28:57;16.90;99.90
19561;DHT22;9927;47.792;10.616;2023-09-19T18:31:26;16.80;99.90
19561;DHT22;9927;47.792;10.616;2023-09-19T18:33:55;16.60;99.90
19561;DHT22;9927;47.792;10.616;2023-09-19T18:36:23;16.50;99.90
19561;DHT22;9927;47.792;10.616;2023-09-19T18:38:51;16.60;99.90
19561;DHT22;9927;47.792;10.616;2023-09-19T18:41:20;16.50;99.90
19561;DHT22;9927;47.792;10.616;2023-09-19T18:43:47;16.50;99.90
19561;DHT22;9927;47.792;10.616;2023-09-19T18:46:16;16.40;99.90
19561;DHT22;9927;47.792;10.616;2023-09-19T18:48:46;16.30;99.90
19561;DHT22;9927;47.792;10.616;2023-09-19T18:51:15;16.20;99.90
19561;DHT22;9927;47.792;10.616;2023-09-19T18:53:45;16.20;99.90
19561;DHT22;9927;47.792;10.616;2023-09-19T18:56:23;16.20;99.90
19561;DHT22;9927;47.792;10.616;2023-09-19T18:58:51;16.10;99.90
19561;DHT22;9927;47.792;10.616;2023-09-19T19:01:18;16.10;99.90
19561;DHT22;9927;47.792;10.616;2023-09-19T19:03:46;16.00;99.90
19561;DHT22;9927;47.792;10.616;2023-09-19T19:06:14;16.10;99.90
19561;DHT22;9927;47.792;10.616;2023-09-19T19:08:44;15.90;99.90
19561;DHT22;9927;47.792;10.616;2023-09-19T19:11:14;15.80;99.90
19561;DHT22;9927;47.792;10.616;2023-09-19T19:13:43;15.70;99.90
19561;DHT22;9927;47.792;10.616;2023-09-19T19:16:14;15.60;99.90
19561;DHT22;9927;47.792;10.616;2023-09-19T19:18:44;15.50;99.90
19561;DHT22;9927;47.792;10.616;2023-09-19T19:21:12;15.60;99.90
19561;DHT22;9927;47.792;10.616;2023-09-19T19:23:41;15.50;99.90
19561;DHT22;9927;47.792;10.616;2023-09-19T19:26:09;15.60;99.90
19561;DHT22;9927;47.792;10.616;2023-09-19T19:28:39;15.60;99.90
19561;DHT22;9927;47.792;10.616;2023-09-19T19:31:08;15.60;99.90
19561;DHT22;9927;47.792;10.616;2023-09-19T19:33:37;15.50;99.90
19561;DHT22;9927;47.792;10.616;2023-09-19T19:36:10;15.50;99.90
19561;DHT22;9927;47.792;10.616;2023-09-19T19:38:39;15.40;99.90